Time;durP1;ratioP1;P1;durP2;ratioP2;P2;SDS_P1;SDS_P2;PMS_P1;PMS_P2;Temp;Humidity;BMP_temperature;BMP_pressure;BME280_temperature;BME280_humidity;BME280_pressure;Samples;Min_cycle;Max_cycle;Signal;HPM_P1;HPM_P2
2022/09/13 00:00:36;;;;;;;;;;;435.20;2355.20;;;;;;5030835;28;19917;-61
2022/09/13 00:03:02;;;;;;;;;;;435.30;2355.20;;;;;;5040799;28;19936;-61
2022/09/13 00:05:28;;;;;;;;;;;435.30;2355.20;;;;;;5043060;28;19913;-61
2022/09/13 00:07:54;;;;;;;;;;;435.30;2355.20;;;;;;5036588;28;19967;-61
2022/09/13 00:10:20;;;;;;;;;;;435.30;2355.20;;;;;;5040194;28;20294;-61
2022/09/13 00:12:46;;;;;;;;;;;435.30;2355.20;;;;;;5039288;28;20404;-62
2022/09/13 00:15:12;;;;;;;;;;;435.40;2355.20;;;;;;5040977;28;19913;-61
2022/09/13 00:17:37;;;;;;;;;;;435.40;2355.20;;;;;;5038225;28;19928;-61
2022/09/13 00:20:03;;;;;;;;;;;435.40;2355.20;;;;;;5031693;28;19913;-62
2022/09/13 00:22:29;;;;;;;;;;;435.30;2355.20;;;;;;5031885;28;19916;-61
2022/09/13 00:24:55;;;;;;;;;;;435.30;2355.20;;;;;;5031792;28;19940;-62
2022/09/13 00:27:20;;;;;;;;;;;435.20;2355.20;;;;;;5031401;28;19994;-61
2022/09/13 00:29:46;;;;;;;;;;;410.50;2355.20;;;;;;5031633;28;19960;-61
2022/09/13 00:32:12;;;;;;;;;;;435.20;2355.20;;;;;;5030929;28;19913;-62
2022/09/13 00:34:37;;;;;;;;;;;410.50;2355.20;;;;;;5031482;28;19910;-63
2022/09/13 00:37:03;;;;;;;;;;;410.50;2355.20;;;;;;5031388;28;19928;-63
2022/09/13 00:39:29;;;;;;;;;;;410.50;2355.20;;;;;;5031467;28;19915;-63
2022/09/13 00:41:55;;;;;;;;;;;435.30;2355.20;;;;;;5031346;28;19996;-61
2022/09/13 00:44:39;;;;;;;;;;;410.40;2355.20;;;;;;5030797;28;19971;-61
2022/09/13 00:47:05;;;;;;;;;;;410.30;2355.20;;;;;;5031355;28;19917;-61
2022/09/13 00:49:35;;;;;;;;;;;410.30;2355.20;;;;;;5031135;28;19916;-61
2022/09/13 00:52:03;;;;;;;;;;;410.20;2355.20;;;;;;5031049;28;19955;-63
2022/09/13 00:54:33;;;;;;;;;;;410.20;2355.20;;;;;;5031187;28;20344;-63
2022/09/13 00:57:01;;;;;;;;;;;410.20;2355.20;;;;;;5031098;28;20020;-60
2022/09/13 00:59:36;;;;;;;;;;;410.00;2355.20;;;;;;5031538;28;19910;-66
2022/09/13 01:02:03;;;;;;;;;;;410.00;2355.20;;;;;;5030908;28;19909;-65
2022/09/13 01:04:30;;;;;;;;;;;409.90;2355.20;;;;;;5031029;28;19956;-64
2022/09/13 01:06:59;;;;;;;;;;;409.80;2355.20;;;;;;5031073;28;19925;-62
2022/09/13 01:09:25;;;;;;;;;;;409.80;2355.20;;;;;;5030986;28;19909;-61
2022/09/13 01:12:03;;;;;;;;;;;409.70;2355.20;;;;;;5030460;28;19916;-61
2022/09/13 01:14:29;;;;;;;;;;;409.80;2355.20;;;;;;5030921;28;19913;-63
2022/09/13 01:16:55;;;;;;;;;;;409.80;2355.20;;;;;;5030841;28;19921;-64
2022/09/13 01:19:21;;;;;;;;;;;409.80;2355.20;;;;;;5030581;28;19916;-62
2022/09/13 01:21:46;;;;;;;;;;;409.80;2355.20;;;;;;5030805;28;19913;-61
2022/09/13 01:24:21;;;;;;;;;;;409.80;2355.20;;;;;;5030441;28;19916;-60
2022/09/13 01:27:02;;;;;;;;;;;409.90;2355.20;;;;;;5030558;28;20333;-63
2022/09/13 01:29:42;;;;;;;;;;;409.90;2355.20;;;;;;5030800;28;19906;-60
2022/09/13 01:32:20;;;;;;;;;;;409.90;2355.20;;;;;;5030617;28;20006;-61
2022/09/13 01:34:45;;;;;;;;;;;409.90;2355.20;;;;;;5030513;28;19909;-61
2022/09/13 01:37:33;;;;;;;;;;;409.90;2355.20;;;;;;5030218;28;20016;-61
2022/09/13 01:40:05;;;;;;;;;;;409.90;2355.20;;;;;;5030891;28;20282;-61
2022/09/13 01:42:39;;;;;;;;;;;409.80;2355.20;;;;;;5030088;28;19956;-62
2022/09/13 01:45:14;;;;;;;;;;;409.80;2355.20;;;;;;5029411;28;19957;-61
2022/09/13 01:48:08;;;;;;;;;;;409.80;2355.20;;;;;;5030152;28;19920;-62
2022/09/13 01:50:37;;;;;;;;;;;409.60;2355.20;;;;;;5030164;28;19909;-61
2022/09/13 01:53:02;;;;;;;;;;;409.60;2355.20;;;;;;5030128;28;20433;-61
2022/09/13 01:55:46;;;;;;;;;;;409.60;2355.20;;;;;;5030379;28;19913;-60
2022/09/13 01:58:27;;;;;;;;;;;409.60;2355.20;;;;;;5029964;28;19985;-61
2022/09/13 02:00:59;;;;;;;;;;;409.60;2355.20;;;;;;5030047;28;20363;-61
2022/09/13 02:03:42;;;;;;;;;;;384.90;2329.60;;;;;;5029980;28;19909;-61
2022/09/13 02:06:10;;;;;;;;;;;384.90;2329.60;;;;;;5030165;28;19913;-61
2022/09/13 02:08:47;;;;;;;;;;;384.90;2329.60;;;;;;5030185;28;20067;-61
2022/09/13 02:11:14;;;;;;;;;;;384.90;2329.60;;;;;;5029928;28;19909;-61
2022/09/13 02:13:46;;;;;;;;;;;384.90;2329.60;;;;;;5029984;28;19909;-61
2022/09/13 02:16:16;;;;;;;;;;;384.90;2329.60;;;;;;5029949;28;19928;-61
2022/09/13 02:18:46;;;;;;;;;;;384.80;2329.60;;;;;;5029952;28;19916;-60
2022/09/13 02:21:15;;;;;;;;;;;384.90;2329.60;;;;;;5029859;28;19917;-61
2022/09/13 02:23:53;;;;;;;;;;;384.80;2329.60;;;;;;5030012;28;19916;-62
2022/09/13 02:26:20;;;;;;;;;;;384.80;2329.60;;;;;;5030023;28;20355;-60
2022/09/13 02:28:53;;;;;;;;;;;384.70;2329.60;;;;;;5029868;28;19909;-61
2022/09/13 02:31:25;;;;;;;;;;;384.70;2329.60;;;;;;5029977;28;19917;-61
2022/09/13 02:33:52;;;;;;;;;;;384.70;2329.60;;;;;;5029646;28;20367;-62
2022/09/13 02:36:20;;;;;;;;;;;384.80;2329.60;;;;;;5029981;28;19940;-63
2022/09/13 02:38:45;;;;;;;;;;;384.90;2329.60;;;;;;5029940;28;19913;-62
2022/09/13 02:41:32;;;;;;;;;;;409.60;2355.20;;;;;;5029657;28;19910;-62
2022/09/13 02:44:06;;;;;;;;;;;384.90;2329.60;;;;;;5029424;28;20278;-62
2022/09/13 02:46:43;;;;;;;;;;;384.90;2329.60;;;;;;5029672;28;19924;-61
2022/09/13 02:49:12;;;;;;;;;;;384.90;2329.60;;;;;;5011993;28;19909;-61
2022/09/13 02:51:38;;;;;;;;;;;384.80;2329.60;;;;;;5029734;28;19909;-61
2022/09/13 02:54:06;;;;;;;;;;;384.70;2329.60;;;;;;5011816;28;19940;-61
2022/09/13 02:56:51;;;;;;;;;;;384.70;2329.60;;;;;;5032542;28;19940;-61
2022/09/13 02:59:19;;;;;;;;;;;384.70;2329.60;;;;;;5033147;28;19909;-60
2022/09/13 03:01:47;;;;;;;;;;;384.60;2329.60;;;;;;5033051;28;19956;-60
2022/09/13 03:04:12;;;;;;;;;;;384.60;2329.60;;;;;;5033063;28;19909;-60
2022/09/13 03:06:39;;;;;;;;;;;384.60;2329.60;;;;;;5033137;28;20015;-60
2022/09/13 03:09:05;;;;;;;;;;;384.60;2329.60;;;;;;5032949;28;19955;-60
2022/09/13 03:11:39;;;;;;;;;;;384.50;2329.60;;;;;;5032814;28;19944;-61
2022/09/13 03:14:14;;;;;;;;;;;384.50;2329.60;;;;;;5033121;28;19914;-60
2022/09/13 03:16:45;;;;;;;;;;;384.50;2329.60;;;;;;5033057;28;19975;-61
2022/09/13 03:19:23;;;;;;;;;;;384.40;2329.60;;;;;;5032885;28;19963;-61
2022/09/13 03:21:48;;;;;;;;;;;384.40;2329.60;;;;;;5032885;28;20320;-62
2022/09/13 03:24:29;;;;;;;;;;;384.30;2329.60;;;;;;5032466;28;19952;-60
2022/09/13 03:27:03;;;;;;;;;;;384.30;2329.60;;;;;;5032752;28;19909;-61
2022/09/13 03:29:32;;;;;;;;;;;384.30;2329.60;;;;;;5032986;28;19956;-60
2022/09/13 03:32:17;;;;;;;;;;;384.30;2329.60;;;;;;5033081;28;19916;-60
2022/09/13 03:35:03;;;;;;;;;;;384.30;2329.60;;;;;;5032528;28;20135;-60
2022/09/13 03:37:28;;;;;;;;;;;384.30;2329.60;;;;;;5033069;28;19921;-61
2022/09/13 03:40:21;;;;;;;;;;;384.40;2329.60;;;;;;5032686;28;19909;-60
2022/09/13 03:42:51;;;;;;;;;;;384.40;2329.60;;;;;;5027632;28;19916;-60
2022/09/13 03:45:18;;;;;;;;;;;384.40;2329.60;;;;;;5032339;28;20019;-61
2022/09/13 03:47:45;;;;;;;;;;;384.40;2329.60;;;;;;5032375;28;20017;-60
2022/09/13 03:50:14;;;;;;;;;;;384.30;2329.60;;;;;;5032211;28;19909;-61
2022/09/13 03:52:40;;;;;;;;;;;384.40;2329.60;;;;;;5032517;28;19955;-61
2022/09/13 03:55:06;;;;;;;;;;;384.30;2329.60;;;;;;5032442;28;19909;-62
2022/09/13 03:57:32;;;;;;;;;;;384.30;2329.60;;;;;;5032122;28;19917;-59
2022/09/13 03:59:57;;;;;;;;;;;384.10;2329.60;;;;;;5032448;28;19932;-61
2022/09/13 04:02:24;;;;;;;;;;;359.30;2329.60;;;;;;5031968;28;19949;-62
2022/09/13 04:04:49;;;;;;;;;;;359.10;2329.60;;;;;;5032208;28;19955;-64
2022/09/13 04:07:16;;;;;;;;;;;359.10;2329.60;;;;;;5031211;28;19913;-61
2022/09/13 04:09:42;;;;;;;;;;;359.10;2329.60;;;;;;5031978;28;20368;-61
2022/09/13 04:12:09;;;;;;;;;;;359.20;2329.60;;;;;;5032083;28;19909;-63
2022/09/13 04:14:34;;;;;;;;;;;359.30;2329.60;;;;;;5031465;28;19914;-64
2022/09/13 04:17:00;;;;;;;;;;;359.30;2329.60;;;;;;5031879;28;20253;-61
2022/09/13 04:19:25;;;;;;;;;;;384.00;2329.60;;;;;;5032079;28;19909;-61
2022/09/13 04:21:52;;;;;;;;;;;384.10;2329.60;;;;;;5031647;28;20421;-61
2022/09/13 04:24:18;;;;;;;;;;;384.20;2329.60;;;;;;5031677;28;19909;-61
2022/09/13 04:26:44;;;;;;;;;;;384.20;2329.60;;;;;;5031524;28;19966;-61
2022/09/13 04:29:10;;;;;;;;;;;384.20;2329.60;;;;;;5031422;28;19909;-61
2022/09/13 04:31:36;;;;;;;;;;;384.20;2329.60;;;;;;5031539;28;20066;-61
2022/09/13 04:34:01;;;;;;;;;;;384.30;2329.60;;;;;;5031372;28;19909;-61
2022/09/13 04:36:27;;;;;;;;;;;384.30;2329.60;;;;;;5031544;28;20055;-61
2022/09/13 04:38:52;;;;;;;;;;;384.30;2329.60;;;;;;5031372;28;20006;-61
2022/09/13 04:41:18;;;;;;;;;;;384.40;2329.60;;;;;;5031437;28;19909;-61
2022/09/13 04:43:47;;;;;;;;;;;384.50;2329.60;;;;;;5031006;28;19963;-61
2022/09/13 04:46:13;;;;;;;;;;;384.60;2329.60;;;;;;5031011;28;19932;-61
2022/09/13 04:48:38;;;;;;;;;;;384.60;2329.60;;;;;;5031443;28;19909;-61
2022/09/13 04:51:04;;;;;;;;;;;384.70;2329.60;;;;;;5030874;28;19909;-61
2022/09/13 04:53:30;;;;;;;;;;;384.80;2329.60;;;;;;5031291;28;19909;-61
2022/09/13 04:56:02;;;;;;;;;;;384.90;2329.60;;;;;;5031198;28;20340;-61
2022/09/13 04:58:28;;;;;;;;;;;409.60;2355.20;;;;;;5031047;28;19995;-62
2022/09/13 05:00:59;;;;;;;;;;;409.90;2355.20;;;;;;5030780;28;19948;-61
2022/09/13 05:03:24;;;;;;;;;;;410.20;2355.20;;;;;;5031136;28;19956;-62
2022/09/13 05:05:50;;;;;;;;;;;410.40;2355.20;;;;;;5030904;28;19913;-62
2022/09/13 05:08:16;;;;;;;;;;;410.50;2355.20;;;;;;5031088;28;19962;-61
2022/09/13 05:10:41;;;;;;;;;;;410.40;2355.20;;;;;;5030839;28;19916;-62
2022/09/13 05:13:07;;;;;;;;;;;410.40;2355.20;;;;;;5030637;28;20319;-61
2022/09/13 05:15:32;;;;;;;;;;;410.50;2355.20;;;;;;5030461;28;19920;-61
2022/09/13 05:17:58;;;;;;;;;;;435.20;2355.20;;;;;;5030810;28;19925;-61
2022/09/13 05:20:23;;;;;;;;;;;435.30;2355.20;;;;;;5030713;28;19913;-62
2022/09/13 05:22:49;;;;;;;;;;;435.30;2355.20;;;;;;5030811;28;20003;-61
2022/09/13 05:25:15;;;;;;;;;;;410.50;2355.20;;;;;;5030573;28;19955;-61
2022/09/13 05:27:40;;;;;;;;;;;410.40;2355.20;;;;;;5030614;28;19971;-61
2022/09/13 05:30:06;;;;;;;;;;;410.50;2355.20;;;;;;5030530;28;19913;-59
2022/09/13 05:32:31;;;;;;;;;;;435.30;2355.20;;;;;;5030655;28;19916;-63
2022/09/13 05:34:57;;;;;;;;;;;436.10;2355.20;;;;;;5030833;28;20348;-62
2022/09/13 05:37:22;;;;;;;;;;;461.00;2380.80;;;;;;5030450;28;20469;-60
2022/09/13 05:39:48;;;;;;;;;;;461.40;2380.80;;;;;;5030565;28;19909;-61
2022/09/13 05:42:14;;;;;;;;;;;486.40;2380.80;;;;;;5030345;28;19916;-61
2022/09/13 05:44:39;;;;;;;;;;;486.60;2380.80;;;;;;5030194;28;19994;-62
2022/09/13 05:47:05;;;;;;;;;;;486.70;2380.80;;;;;;5030537;28;19917;-57
2022/09/13 05:49:30;;;;;;;;;;;486.80;2380.80;;;;;;5030260;28;19909;-58
2022/09/13 05:51:56;;;;;;;;;;;486.60;2380.80;;;;;;5030612;28;19917;-57
2022/09/13 05:54:21;;;;;;;;;;;486.60;2380.80;;;;;;5030378;28;19916;-56
2022/09/13 05:56:47;;;;;;;;;;;486.80;2380.80;;;;;;5030387;28;19943;-55
2022/09/13 05:59:13;;;;;;;;;;;487.10;2380.80;;;;;;5030035;28;19909;-58
2022/09/13 06:01:39;;;;;;;;;;;537.70;2406.40;;;;;;5030300;28;19909;-56
2022/09/13 06:04:05;;;;;;;;;;;538.30;2406.40;;;;;;5030433;28;20003;-56
2022/09/13 06:06:30;;;;;;;;;;;563.70;2432.00;;;;;;5030246;28;20406;-58
2022/09/13 06:08:56;;;;;;;;;;;614.70;2278.40;;;;;;5030363;28;20386;-56
2022/09/13 06:11:22;;;;;;;;;;;691.40;1920.00;;;;;;5030218;28;19909;-58
2022/09/13 06:13:49;;;;;;;;;;;717.30;1792.00;;;;;;5030208;28;19913;-58
2022/09/13 06:16:16;;;;;;;;;;;;;;;;;;5029960;28;19914;-56
2022/09/13 06:18:42;;;;;;;;;;;743.10;1664.00;;;;;;5030136;28;19917;-57
2022/09/13 06:21:08;;;;;;;;;;;742.40;1689.60;;;;;;5029835;28;20367;-56
2022/09/13 06:23:34;;;;;;;;;;;717.50;1715.20;;;;;;5029816;28;19909;-57
2022/09/13 06:26:00;;;;;;;;;;;743.10;1664.00;;;;;;5029864;28;19916;-58
2022/09/13 06:28:25;;;;;;;;;;;768.40;1561.60;;;;;;5029963;28;19916;-56
2022/09/13 06:30:51;;;;;;;;;;;743.10;1587.20;;;;;;5032254;28;19909;-58
2022/09/13 06:33:16;;;;;;;;;;;819.50;1510.40;;;;;;5033755;28;19996;-58
2022/09/13 06:35:42;;;;;;;;;;;768.40;1561.60;;;;;;5033720;28;19936;-58
2022/09/13 06:38:08;;;;;;;;;;;742.40;1664.00;;;;;;5033849;28;19924;-58
2022/09/13 06:40:33;;;;;;;;;;;768.30;1612.80;;;;;;5033551;28;20385;-58
2022/09/13 06:42:59;;;;;;;;;;;845.70;1408.00;;;;;;5033928;28;19909;-57
2022/09/13 06:45:24;;;;;;;;;;;845.30;1408.00;;;;;;5033138;28;20024;-57
2022/09/13 06:47:52;;;;;;;;;;;896.40;1305.60;;;;;;5033516;28;20335;-57
2022/09/13 06:50:18;;;;;;;;;;;819.40;1459.20;;;;;;5033585;28;20320;-58
2022/09/13 06:52:43;;;;;;;;;;;793.90;1459.20;;;;;;5033401;28;19959;-57
2022/09/13 06:55:09;;;;;;;;;;;870.70;1331.20;;;;;;5033554;28;20339;-58
2022/09/13 06:57:35;;;;;;;;;;;;;;;;;;5033088;28;19917;-58
2022/09/13 07:00:00;;;;;;;;;;;870.40;1356.80;;;;;;5033176;28;19910;-59
2022/09/13 07:02:26;;;;;;;;;;;870.90;1305.60;;;;;;5033372;28;19909;-59
2022/09/13 07:04:52;;;;;;;;;;;922.30;1228.80;;;;;;5032981;28;19932;-59
2022/09/13 07:07:18;;;;;;;;;;;947.30;1203.20;;;;;;5033475;28;19913;-59
2022/09/13 07:09:43;;;;;;;;;;;922.50;1203.20;;;;;;5033208;28;19913;-60
2022/09/13 07:12:09;;;;;;;;;;;896.40;1228.80;;;;;;5033307;28;19910;-59
2022/09/13 07:14:34;;;;;;;;;;;896.70;1228.80;;;;;;5032833;28;19967;-58
2022/09/13 07:17:00;;;;;;;;;;;922.40;1203.20;;;;;;5033160;28;19921;-59
2022/09/13 07:19:28;;;;;;;;;;;947.70;1177.60;;;;;;5033063;28;20310;-59
2022/09/13 07:21:54;;;;;;;;;;;973.50;1152.00;;;;;;5032697;28;19913;-59
2022/09/13 07:24:20;;;;;;;;;;;998.50;1152.00;;;;;;5032849;28;19916;-59
2022/09/13 07:26:46;;;;;;;;;;;998.80;1100.80;;;;;;5033056;28;19909;-60
2022/09/13 07:29:15;;;;;;;;;;;1049.70;1075.20;;;;;;5032775;28;19909;-60
2022/09/13 07:31:44;;;;;;;;;;;1024.20;1075.20;;;;;;5032818;28;19916;-60
2022/09/13 07:34:14;;;;;;;;;;;1024.70;1075.20;;;;;;5032701;28;20311;-59
2022/09/13 07:36:40;;;;;;;;;;;998.60;1100.80;;;;;;5032422;28;19917;-59
2022/09/13 07:39:06;;;;;;;;;;;973.70;1126.40;;;;;;5032699;28;19909;-60
2022/09/13 07:41:32;;;;;;;;;;;1024.50;1049.60;;;;;;5031211;28;19917;-60
2022/09/13 07:43:59;;;;;;;;;;;998.60;1126.40;;;;;;5032241;28;20425;-60
2022/09/13 07:46:26;;;;;;;;;;;973.50;1126.40;;;;;;5030195;28;19925;-60
2022/09/13 07:48:53;;;;;;;;;;;998.80;1100.80;;;;;;5030581;28;19913;-60
2022/09/13 07:51:19;;;;;;;;;;;1024.30;1075.20;;;;;;5030771;28;19913;-59
2022/09/13 07:53:46;;;;;;;;;;;1024.70;1024.00;;;;;;5030687;28;20327;-60
2022/09/13 07:56:19;;;;;;;;;;;1050.10;1049.60;;;;;;5030613;28;19909;-60
2022/09/13 07:58:45;;;;;;;;;;;1050.00;1024.00;;;;;;5029845;28;19917;-59
2022/09/13 08:01:17;;;;;;;;;;;1024.70;1049.60;;;;;;5030388;28;20275;-59
2022/09/13 08:03:42;;;;;;;;;;;1075.30;1024.00;;;;;;5030387;28;19913;-60
2022/09/13 08:06:08;;;;;;;;;;;1075.60;998.40;;;;;;5030554;28;19963;-59
2022/09/13 08:08:34;;;;;;;;;;;1101.10;972.80;;;;;;5030453;28;19948;-59
2022/09/13 08:11:00;;;;;;;;;;;1100.90;998.40;;;;;;5030592;28;19916;-60
2022/09/13 08:13:27;;;;;;;;;;;1101.00;998.40;;;;;;5029980;28;19932;-60
2022/09/13 08:15:53;;;;;;;;;;;1101.00;972.80;;;;;;5030075;28;19975;-60
2022/09/13 08:18:19;;;;;;;;;;;1076.10;947.20;;;;;;5030227;28;19956;-60
2022/09/13 08:20:44;;;;;;;;;;;1100.90;972.80;;;;;;5030430;28;19952;-60
2022/09/13 08:23:11;;;;;;;;;;;1075.60;972.80;;;;;;5030422;28;19960;-60
2022/09/13 08:25:37;;;;;;;;;;;1050.00;998.40;;;;;;5029816;28;19966;-60
2022/09/13 08:28:13;;;;;;;;;;;1050.40;972.80;;;;;;5029827;28;19920;-60
2022/09/13 08:30:40;;;;;;;;;;;1050.00;972.80;;;;;;5031885;28;19967;-60
2022/09/13 08:33:06;;;;;;;;;;;1049.70;998.40;;;;;;5031829;28;19909;-60
2022/09/13 08:35:32;;;;;;;;;;;1049.70;998.40;;;;;;5031351;28;19916;-60
2022/09/13 08:37:58;;;;;;;;;;;1049.90;998.40;;;;;;5031589;28;19921;-60
2022/09/13 08:40:24;;;;;;;;;;;1050.20;972.80;;;;;;5031430;28;19991;-60
2022/09/13 08:42:50;;;;;;;;;;;;;;;;;;5031594;28;19916;-59
2022/09/13 08:45:16;;;;;;;;;;;998.80;1049.60;;;;;;5031039;28;19925;-59
2022/09/13 08:47:41;;;;;;;;;;;998.90;998.40;;;;;;5031390;28;19918;-59
2022/09/13 08:50:13;;;;;;;;;;;998.90;1024.00;;;;;;5031344;28;19949;-59
2022/09/13 08:52:56;;;;;;;;;;;947.80;1024.00;;;;;;5031100;28;19963;-59
2022/09/13 08:55:22;;;;;;;;;;;922.00;1100.80;;;;;;5031059;28;19932;-59
2022/09/13 08:57:52;;;;;;;;;;;871.00;1152.00;;;;;;5031033;28;20348;-58
2022/09/13 09:00:24;;;;;;;;;;;870.50;1152.00;;;;;;5031173;28;20378;-59
2022/09/13 09:03:19;;;;;;;;;;;845.20;1177.60;;;;;;5031096;28;20343;-58
2022/09/13 09:05:46;;;;;;;;;;;845.00;1177.60;;;;;;4950601;29;19910;-58
2022/09/13 09:08:33;;;;;;;;;;;820.10;1152.00;;;;;;4950761;29;19911;-59
2022/09/13 09:11:02;;;;;;;;;;;820.10;1203.20;;;;;;4950993;29;19910;-58
2022/09/13 09:13:27;;;;;;;;;;;794.20;1254.40;;;;;;4950847;29;20301;-58
2022/09/13 09:16:19;;;;;;;;;;;768.90;1254.40;;;;;;4950481;29;19918;-59
2022/09/13 09:18:47;;;;;;;;;;;768.90;1280.00;;;;;;4928796;29;19918;-59
2022/09/13 09:21:15;;;;;;;;;;;768.50;1254.40;;;;;;4950505;29;20380;-60
2022/09/13 09:23:50;;;;;;;;;;;768.60;1331.20;;;;;;4950492;29;19911;-60
2022/09/13 09:26:22;;;;;;;;;;;743.20;1280.00;;;;;;4950399;29;20396;-59
2022/09/13 09:29:13;;;;;;;;;;;742.90;1331.20;;;;;;4950562;29;19911;-59
2022/09/13 09:31:42;;;;;;;;;;;742.50;1331.20;;;;;;4950567;29;19911;-57
2022/09/13 09:34:29;;;;;;;;;;;717.70;1305.60;;;;;;4950653;29;19978;-57
2022/09/13 09:36:54;;;;;;;;;;;717.30;1305.60;;;;;;4950137;29;19922;-56
2022/09/13 09:39:20;;;;;;;;;;;717.40;1331.20;;;;;;4950544;29;20691;-57
2022/09/13 09:41:45;;;;;;;;;;;717.70;1331.20;;;;;;4977968;28;20417;-57
2022/09/13 09:44:19;;;;;;;;;;;742.40;1331.20;;;;;;5029935;28;19975;-57
2022/09/13 09:47:01;;;;;;;;;;;717.60;1331.20;;;;;;5030218;28;20314;-57
2022/09/13 09:52:21;;;;;;;;;;;692.10;1331.20;;;;;;5030261;28;19920;-57
2022/09/13 09:54:48;;;;;;;;;;;716.80;1408.00;;;;;;5028944;28;19976;-56
2022/09/13 09:57:13;;;;;;;;;;;717.00;1356.80;;;;;;5028644;28;20430;-57
2022/09/13 09:59:39;;;;;;;;;;;716.80;1408.00;;;;;;5028932;28;19996;-57
2022/09/13 10:02:14;;;;;;;;;;;717.10;1382.40;;;;;;5028611;28;20026;-58
2022/09/13 10:04:39;;;;;;;;;;;717.50;1408.00;;;;;;5029201;28;19909;-60
2022/09/13 10:07:34;;;;;;;;;;;717.20;1408.00;;;;;;5032694;28;20302;-59
2022/09/13 10:10:21;;;;;;;;;;;717.60;1382.40;;;;;;4952650;29;20300;-60
2022/09/13 10:12:51;;;;;;;;;;;717.50;1382.40;;;;;;4953367;29;20033;-59
2022/09/13 10:15:19;;;;;;;;;;;717.60;1408.00;;;;;;4951230;29;19915;-60
2022/09/13 10:17:59;;;;;;;;;;;717.60;1356.80;;;;;;4951717;29;19986;-59
2022/09/13 10:20:25;;;;;;;;;;;742.40;1356.80;;;;;;4951645;29;19910;-58
2022/09/13 10:23:09;;;;;;;;;;;742.50;1356.80;;;;;;4951706;29;19910;-60
2022/09/13 10:25:36;;;;;;;;;;;742.50;1382.40;;;;;;4951680;29;19960;-58
2022/09/13 10:28:03;;;;;;;;;;;742.40;1382.40;;;;;;4951131;29;19915;-59
2022/09/13 10:30:34;;;;;;;;;;;717.50;1356.80;;;;;;4951484;29;20359;-59
2022/09/13 10:33:00;;;;;;;;;;;717.50;1382.40;;;;;;4951533;29;19942;-59
2022/09/13 10:35:26;;;;;;;;;;;717.40;1382.40;;;;;;4951392;29;19972;-59
2022/09/13 10:37:51;;;;;;;;;;;717.10;1382.40;;;;;;4951269;29;19926;-58
2022/09/13 10:40:28;;;;;;;;;;;691.70;1408.00;;;;;;4951110;29;19910;-60
2022/09/13 10:42:58;;;;;;;;;;;692.00;1382.40;;;;;;4951252;29;20399;-58
2022/09/13 10:45:25;;;;;;;;;;;716.90;1382.40;;;;;;4957626;28;19926;-59
2022/09/13 10:47:53;;;;;;;;;;;716.80;1408.00;;;;;;5031538;28;19936;-59
2022/09/13 10:50:22;;;;;;;;;;;692.10;1382.40;;;;;;5032058;28;19916;-58
2022/09/13 10:52:54;;;;;;;;;;;692.10;1382.40;;;;;;5031943;28;19913;-59
2022/09/13 10:55:25;;;;;;;;;;;716.80;1408.00;;;;;;5013957;28;20317;-59
2022/09/13 10:57:51;;;;;;;;;;;717.10;1408.00;;;;;;5031407;28;19951;-59
2022/09/13 11:00:30;;;;;;;;;;;716.90;1408.00;;;;;;5031421;28;19917;-59
2022/09/13 11:03:01;;;;;;;;;;;717.40;1382.40;;;;;;5030086;28;19913;-59
2022/09/13 11:05:36;;;;;;;;;;;717.40;1382.40;;;;;;5030596;28;20368;-59
2022/09/13 11:08:24;;;;;;;;;;;717.50;1382.40;;;;;;5027731;28;19939;-58
2022/09/13 11:10:53;;;;;;;;;;;717.40;1382.40;;;;;;5014256;28;20009;-60
2022/09/13 11:13:35;;;;;;;;;;;692.00;1382.40;;;;;;5030663;28;19924;-60
2022/09/13 11:16:19;;;;;;;;;;;691.90;1408.00;;;;;;5030735;28;19921;-59
2022/09/13 11:19:06;;;;;;;;;;;716.90;1382.40;;;;;;5012809;28;20273;-60
2022/09/13 11:21:41;;;;;;;;;;;691.90;1408.00;;;;;;5029552;28;19916;-59
2022/09/13 11:24:06;;;;;;;;;;;716.90;1382.40;;;;;;5030208;28;19913;-60
2022/09/13 11:26:54;;;;;;;;;;;692.10;1459.20;;;;;;5029953;28;19909;-58
2022/09/13 11:29:22;;;;;;;;;;;717.10;1459.20;;;;;;5028332;28;19996;-60
2022/09/13 11:31:48;;;;;;;;;;;717.20;1408.00;;;;;;5029907;28;19909;-60
2022/09/13 11:34:19;;;;;;;;;;;717.40;1382.40;;;;;;5029584;28;19913;-57
2022/09/13 11:36:47;;;;;;;;;;;717.10;1433.60;;;;;;5029710;28;19971;-57
2022/09/13 11:39:19;;;;;;;;;;;717.40;1408.00;;;;;;5027417;28;19932;-61
2022/09/13 11:41:56;;;;;;;;;;;717.40;1408.00;;;;;;5029703;28;19956;-58
2022/09/13 11:44:30;;;;;;;;;;;717.60;1382.40;;;;;;5028143;28;19924;-58
2022/09/13 11:47:28;;;;;;;;;;;717.50;1382.40;;;;;;5027471;28;19917;-59
2022/09/13 11:50:00;;;;;;;;;;;717.40;1408.00;;;;;;4968214;28;19914;-60
2022/09/13 11:52:34;;;;;;;;;;;717.40;1408.00;;;;;;4968101;28;20548;-59
2022/09/13 11:55:07;;;;;;;;;;;717.20;1382.40;;;;;;4968435;28;19910;-58
2022/09/13 11:57:39;;;;;;;;;;;717.10;1408.00;;;;;;4965621;28;19926;-59
2022/09/13 12:00:09;;;;;;;;;;;716.90;1408.00;;;;;;4967484;28;19933;-59
2022/09/13 12:03:00;;;;;;;;;;;717.10;1408.00;;;;;;4967952;28;19997;-58
2022/09/13 12:05:31;;;;;;;;;;;716.90;1433.60;;;;;;4929405;29;19919;-59
2022/09/13 12:08:11;;;;;;;;;;;717.10;1408.00;;;;;;4929666;29;19910;-59
2022/09/13 12:10:39;;;;;;;;;;;717.30;1408.00;;;;;;4927829;29;20195;-57
2022/09/13 12:13:06;;;;;;;;;;;717.20;1459.20;;;;;;4928933;29;19914;-58
2022/09/13 12:15:37;;;;;;;;;;;717.20;1408.00;;;;;;4926590;29;19977;-57
2022/09/13 12:18:11;;;;;;;;;;;717.10;1433.60;;;;;;4929314;29;19970;-58
2022/09/13 12:20:40;;;;;;;;;;;717.00;1408.00;;;;;;4927803;29;19961;-58
2022/09/13 12:23:11;;;;;;;;;;;717.30;1459.20;;;;;;4929335;29;20558;-58
2022/09/13 12:26:03;;;;;;;;;;;717.20;1433.60;;;;;;4933993;29;19915;-58
2022/09/13 12:28:32;;;;;;;;;;;717.10;1408.00;;;;;;4891037;29;20003;-59
2022/09/13 12:31:06;;;;;;;;;;;716.80;1459.20;;;;;;4894480;29;19954;-58
2022/09/13 12:33:32;;;;;;;;;;;691.70;1433.60;;;;;;4894218;29;19918;-58
2022/09/13 12:36:04;;;;;;;;;;;691.20;1459.20;;;;;;4894530;29;19912;-59
2022/09/13 12:38:32;;;;;;;;;;;691.40;1484.80;;;;;;4894264;29;20018;-58
2022/09/13 12:41:06;;;;;;;;;;;691.20;1510.40;;;;;;4894604;29;19916;-59
2022/09/13 12:43:45;;;;;;;;;;;691.60;1459.20;;;;;;4970083;28;19917;-59
2022/09/13 12:46:31;;;;;;;;;;;691.70;1433.60;;;;;;4969899;28;19930;-59
2022/09/13 12:49:15;;;;;;;;;;;691.70;1408.00;;;;;;4970456;28;19916;-59
2022/09/13 12:51:43;;;;;;;;;;;692.10;1408.00;;;;;;4969656;28;20027;-59
2022/09/13 12:54:20;;;;;;;;;;;716.90;1510.40;;;;;;4970315;28;20020;-59
2022/09/13 12:57:04;;;;;;;;;;;716.80;1433.60;;;;;;4970313;28;19925;-58
2022/09/13 12:59:34;;;;;;;;;;;716.90;1459.20;;;;;;4970182;28;19910;-59
2022/09/13 13:02:02;;;;;;;;;;;716.90;1433.60;;;;;;4970494;28;19910;-59
2022/09/13 13:04:30;;;;;;;;;;;716.80;1459.20;;;;;;4975057;28;19914;-60
2022/09/13 13:06:58;;;;;;;;;;;692.00;1408.00;;;;;;5009727;28;20276;-58
2022/09/13 13:09:32;;;;;;;;;;;691.40;1382.40;;;;;;5009714;28;19923;-59
2022/09/13 13:11:57;;;;;;;;;;;691.50;1433.60;;;;;;5009678;28;19913;-58
2022/09/13 13:14:38;;;;;;;;;;;691.60;1459.20;;;;;;5009340;28;20487;-59
2022/09/13 13:17:22;;;;;;;;;;;691.60;1408.00;;;;;;5008820;28;20332;-59
2022/09/13 13:19:48;;;;;;;;;;;691.60;1459.20;;;;;;5009604;28;19913;-59
2022/09/13 13:22:32;;;;;;;;;;;691.70;1433.60;;;;;;5009369;28;20386;-58
2022/09/13 13:24:57;;;;;;;;;;;691.90;1408.00;;;;;;5009289;28;19928;-59
2022/09/13 13:27:33;;;;;;;;;;;691.70;1433.60;;;;;;5009406;28;19933;-59
2022/09/13 13:30:18;;;;;;;;;;;691.70;1459.20;;;;;;5008939;28;20004;-59
2022/09/13 13:33:02;;;;;;;;;;;691.70;1459.20;;;;;;5009145;28;19910;-59
2022/09/13 13:35:31;;;;;;;;;;;691.80;1433.60;;;;;;5009524;28;20008;-58
2022/09/13 13:38:13;;;;;;;;;;;691.70;1459.20;;;;;;5009202;28;19918;-58
2022/09/13 13:40:38;;;;;;;;;;;691.70;1433.60;;;;;;5009270;28;19910;-59
2022/09/13 13:43:14;;;;;;;;;;;691.40;1433.60;;;;;;5008569;28;20383;-59
2022/09/13 13:45:54;;;;;;;;;;;691.60;1433.60;;;;;;5008897;28;20319;-58
2022/09/13 13:48:34;;;;;;;;;;;692.00;1433.60;;;;;;5009204;28;19987;-58
2022/09/13 13:51:11;;;;;;;;;;;716.80;1433.60;;;;;;5009182;28;19910;-58
2022/09/13 13:53:38;;;;;;;;;;;717.00;1433.60;;;;;;5009077;28;19909;-60
2022/09/13 13:56:14;;;;;;;;;;;716.90;1433.60;;;;;;5010157;28;20411;-59
2022/09/13 13:58:45;;;;;;;;;;;692.10;1433.60;;;;;;5010971;28;20319;-59
2022/09/13 14:01:28;;;;;;;;;;;716.80;1433.60;;;;;;5010426;28;19917;-59